Time;durP1;ratioP1;P1;durP2;ratioP2;P2;SDS_P1;SDS_P2;PMS_P1;PMS_P2;Temp;Humidity;BMP_temperature;BMP_pressure;BME280_temperature;BME280_humidity;BME280_pressure;Samples;Min_cycle;Max_cycle;Signal;HPM_P1;HPM_P2
2022/03/05 00:03:20;;;;;;;23.97;12.27;;;2.80;94.70;;;0.87;68.33;100423.16;10427431;27;97001;-75
2022/03/05 00:08:23;;;;;;;22.70;12.03;;;2.80;95.00;;;0.76;69.01;100435.16;10410616;27;96611;-75
2022/03/05 00:13:26;;;;;;;22.20;11.40;;;2.70;95.50;;;0.67;69.75;100422.69;10460682;27;96590;-75
2022/03/05 00:18:29;;;;;;;29.57;13.67;;;2.60;96.10;;;0.63;69.71;100423.81;10420508;27;96620;-75
2022/03/05 00:23:32;;;;;;;24.47;11.47;;;2.50;95.70;;;0.60;69.42;100420.53;10441531;27;96665;-75
2022/03/05 00:28:35;;;;;;;26.33;12.27;;;2.50;95.60;;;0.54;69.30;100419.19;10429622;27;98677;-74
2022/03/05 00:33:37;;;;;;;36.00;15.53;;;2.50;95.60;;;0.52;69.34;100413.19;10434131;27;96668;-74
2022/03/05 00:38:41;;;;;;;27.07;12.13;;;2.40;95.30;;;0.51;68.85;100406.31;10407249;27;96923;-74
2022/03/05 00:43:44;;;;;;;26.73;12.80;;;2.40;94.90;;;0.49;68.78;100410.81;10414767;27;98603;-74
2022/03/05 00:48:47;;;;;;;24.03;11.07;;;2.40;95.40;;;0.47;68.98;100404.81;10389293;27;97598;-74
2022/03/05 00:53:50;;;;;;;24.87;10.93;;;2.40;95.70;;;0.42;68.92;100407.75;10396370;27;98383;-76
2022/03/05 00:58:52;;;;;;;21.13;10.47;;;2.30;95.30;;;0.37;68.63;100398.50;10434725;27;97247;-76
2022/03/05 01:03:55;;;;;;;19.33;8.93;;;2.30;95.00;;;0.29;68.17;100395.53;10414173;27;98205;-75
2022/03/05 01:09:01;;;;;;;19.63;8.80;;;2.30;94.80;;;0.21;67.99;100399.47;10412431;27;98400;-75
2022/03/05 01:14:04;;;;;;;20.87;9.43;;;2.20;94.40;;;0.15;67.82;100394.63;10416606;27;98874;-75
2022/03/05 01:19:07;;;;;;;22.20;8.67;;;2.10;94.20;;;0.14;67.56;100399.97;10415961;27;97471;-75
2022/03/05 01:24:10;;;;;;;16.43;8.23;;;2.10;94.10;;;0.11;67.19;100406.22;10390183;27;97953;-75
2022/03/05 01:29:14;;;;;;;16.33;7.73;;;2.00;93.90;;;0.10;67.02;100403.69;10405618;27;96918;-75
2022/03/05 01:34:17;;;;;;;14.33;6.97;;;2.00;93.50;;;0.09;66.55;100402.84;10441601;27;96726;-75
2022/03/05 01:39:20;;;;;;;14.67;6.83;;;2.00;93.00;;;0.10;65.99;100399.31;10403027;27;97588;-75
2022/03/05 01:44:24;;;;;;;14.77;6.27;;;2.00;92.80;;;0.12;65.30;100404.44;10394062;27;97565;-75
2022/03/05 01:49:27;;;;;;;13.80;6.63;;;2.00;92.50;;;0.09;65.11;100402.03;10397020;27;97008;-75
2022/03/05 01:54:30;;;;;;;13.37;6.50;;;2.00;92.20;;;0.06;64.82;100413.53;10416841;27;98021;-75
2022/03/05 01:59:34;;;;;;;12.20;5.80;;;2.00;91.80;;;0.02;64.54;100409.41;10392378;27;96647;-74
2022/03/05 02:04:37;;;;;;;10.53;5.40;;;1.90;91.40;;;-0.03;64.20;100412.28;10415177;27;97651;-74
2022/03/05 02:09:40;;;;;;;11.87;5.57;;;1.90;91.20;;;-0.02;64.21;100407.91;10443858;27;97147;-74
2022/03/05 02:14:43;;;;;;;11.67;5.87;;;1.90;91.00;;;-0.04;64.11;100409.78;10412195;27;96862;-74
2022/03/05 02:19:46;;;;;;;11.20;5.23;;;1.90;91.00;;;-0.05;64.10;100414.19;10411885;27;97664;-74
2022/03/05 02:25:03;;;;;;;8.60;5.40;;;1.90;90.90;;;-0.03;63.84;100421.91;10420308;27;97911;-75
2022/03/05 02:30:06;;;;;;;13.73;5.33;;;1.80;90.60;;;-0.02;63.47;100415.75;10427568;27;97398;-74
2022/03/05 02:35:10;;;;;;;10.83;5.40;;;1.90;90.50;;;0.00;63.19;100421.75;10423329;27;97045;-75
2022/03/05 02:40:13;;;;;;;11.17;4.63;;;1.90;90.30;;;-0.01;62.93;100413.03;10431553;27;98933;-74
2022/03/05 02:45:16;;;;;;;11.43;5.70;;;1.90;90.40;;;-0.01;63.50;100420.88;10416345;27;96700;-75
2022/03/05 02:50:19;;;;;;;10.73;6.10;;;1.90;90.50;;;-0.04;63.92;100421.06;10423840;27;99878;-74
2022/03/05 02:55:22;;;;;;;13.03;6.37;;;1.90;90.60;;;-0.08;64.64;100410.91;10395831;27;97404;-74
2022/03/05 03:00:25;;;;;;;14.80;6.30;;;1.90;91.20;;;-0.12;65.36;100407.66;10406013;27;97715;-74
2022/03/05 03:05:28;;;;;;;15.27;6.23;;;1.80;91.60;;;-0.12;65.42;100409.41;10395689;27;96964;-75
2022/03/05 03:10:31;;;;;;;11.40;5.37;;;1.80;91.40;;;-0.11;65.83;100411.09;10402917;27;97654;-75
2022/03/05 03:15:34;;;;;;;13.80;6.77;;;1.80;91.50;;;-0.12;65.80;100406.78;10414622;27;96772;-75
2022/03/05 03:20:36;;;;;;;13.30;6.53;;;1.80;92.30;;;-0.14;65.97;100408.66;10396331;27;96804;-75
2022/03/05 03:25:39;;;;;;;15.50;6.33;;;1.80;91.90;;;-0.14;66.51;100419.13;10385234;27;98559;-75
2022/03/05 03:30:43;;;;;;;16.27;6.60;;;1.80;91.90;;;-0.18;66.42;100421.09;10418834;27;96848;-75
2022/03/05 03:35:46;;;;;;;16.67;6.67;;;1.80;91.90;;;-0.20;66.68;100422.94;10414084;27;97831;-74
2022/03/05 03:40:49;;;;;;;17.83;7.20;;;1.70;92.20;;;-0.24;66.67;100424.09;10404327;27;96769;-74
2022/03/05 03:45:52;;;;;;;13.73;6.77;;;1.70;92.20;;;-0.28;67.46;100431.25;10409625;27;98287;-76
2022/03/05 03:50:55;;;;;;;19.07;7.97;;;1.70;92.50;;;-0.31;67.56;100431.41;10424478;27;98802;-74
2022/03/05 03:56:16;;;;;;;16.27;7.57;;;1.70;92.80;;;-0.32;68.01;100426.31;10409653;27;98965;-74
2022/03/05 04:01:20;;;;;;;17.57;8.50;;;1.60;92.50;;;-0.30;68.19;100429.66;10402023;27;97730;-74
2022/03/05 04:06:23;;;;;;;19.23;7.93;;;1.70;92.80;;;-0.30;68.66;100425.28;10404342;27;97127;-76
2022/03/05 04:11:26;;;;;;;14.53;6.93;;;1.70;93.60;;;-0.28;68.77;100431.25;10419205;27;98732;-76
2022/03/05 04:16:29;;;;;;;20.63;9.07;;;1.70;93.40;;;-0.26;68.95;100431.16;10404234;27;98311;-74
2022/03/05 04:21:32;;;;;;;19.47;8.47;;;1.70;93.70;;;-0.25;68.96;100432.00;10404886;27;96698;-75
2022/03/05 04:26:35;;;;;;;10.63;6.23;;;1.70;93.40;;;-0.23;68.81;100435.38;10424348;27;96707;-75
2022/03/05 04:31:38;;;;;;;18.43;8.07;;;1.70;93.70;;;-0.21;68.79;100436.09;10410548;27;96718;-75
2022/03/05 04:36:42;;;;;;;20.87;8.07;;;1.70;93.80;;;-0.18;68.72;100448.97;10403556;27;99558;-75
2022/03/05 04:41:45;;;;;;;19.87;8.37;;;1.70;93.70;;;-0.15;68.70;100451.41;10420500;27;98395;-75
2022/03/05 04:46:47;;;;;;;17.20;7.40;;;1.80;93.80;;;-0.12;68.66;100449.47;10390488;27;97249;-76
2022/03/05 04:51:55;;;;;;;26.67;10.63;;;1.80;93.80;;;-0.08;68.81;100444.88;10401525;27;96888;-75
2022/03/05 04:57:00;;;;;;;22.40;9.33;;;1.80;94.20;;;-0.04;69.00;100446.38;10390282;27;96922;-76
2022/03/05 05:02:03;;;;;;;25.23;10.40;;;1.80;94.10;;;-0.02;68.66;100440.09;10419279;27;98587;-76
2022/03/05 05:07:06;;;;;;;46.33;14.93;;;1.90;94.10;;;0.01;68.68;100444.31;10403022;27;98672;-76
2022/03/05 05:12:10;;;;;;;28.13;11.53;;;1.90;94.00;;;0.02;68.44;100451.22;10404111;27;97638;-76
2022/03/05 05:17:13;;;;;;;61.90;21.00;;;1.90;93.70;;;0.03;68.75;100447.66;10411881;27;96769;-76
2022/03/05 05:22:16;;;;;;;62.47;20.87;;;1.90;93.90;;;0.04;68.95;100461.56;10422670;27;96709;-76
2022/03/05 05:27:19;;;;;;;51.13;17.63;;;1.90;93.70;;;0.06;69.08;100460.56;10408109;27;96743;-75
2022/03/05 05:32:22;;;;;;;40.83;14.17;;;2.00;94.00;;;0.08;69.05;100471.75;10403121;27;98183;-74
2022/03/05 05:37:25;;;;;;;35.27;14.90;;;2.00;94.20;;;0.12;69.38;100478.47;10418304;27;97456;-75
2022/03/05 05:42:28;;;;;;;40.57;15.20;;;2.00;94.30;;;0.16;69.48;100481.72;10425004;27;98178;-75
2022/03/05 05:47:31;;;;;;;40.07;15.47;;;2.10;94.60;;;0.19;69.58;100484.16;10385095;27;96786;-74
2022/03/05 05:52:34;;;;;;;36.73;15.80;;;2.10;94.50;;;0.22;69.39;100494.41;10400173;27;96684;-75
2022/03/05 05:57:37;;;;;;;34.73;14.40;;;2.10;94.70;;;0.29;69.88;100498.31;10407464;27;98960;-76
2022/03/05 06:02:40;;;;;;;31.37;14.73;;;2.10;94.70;;;0.34;70.38;100506.72;10429758;27;98285;-75
2022/03/05 06:07:43;;;;;;;25.30;13.00;;;2.20;96.30;;;0.39;70.38;100507.28;10413445;27;97508;-75
2022/03/05 06:12:48;;;;;;;30.80;13.50;;;2.20;95.80;;;0.42;70.36;100507.09;10408925;27;99663;-75
2022/03/05 06:17:54;;;;;;;25.60;11.90;;;2.30;95.40;;;0.49;69.98;100512.78;10407099;27;96640;-76
2022/03/05 06:22:57;;;;;;;29.83;13.03;;;2.30;95.40;;;0.58;69.63;100514.81;10401617;27;96917;-76
2022/03/05 06:28:01;;;;;;;23.50;10.80;;;2.40;95.40;;;0.65;69.45;100518.69;10436305;27;97418;-76
2022/03/05 06:33:03;;;;;;;23.57;11.40;;;2.50;95.10;;;0.76;69.13;100525.88;10426878;27;97029;-76
2022/03/05 06:38:07;;;;;;;22.23;9.80;;;2.50;95.20;;;0.85;68.34;100522.69;10433955;27;96524;-76
2022/03/05 06:43:10;;;;;;;16.27;8.33;;;2.60;94.80;;;0.97;68.20;100516.66;10411000;27;98112;-75
2022/03/05 06:48:14;;;;;;;20.63;8.40;;;2.70;94.80;;;1.12;67.42;100520.06;10409018;27;96984;-77
2022/03/05 06:53:17;;;;;;;19.80;8.93;;;2.90;94.30;;;1.30;66.23;100516.25;10436410;27;96870;-76
2022/03/05 06:58:20;;;;;;;38.97;18.63;;;3.00;93.50;;;1.50;65.37;100517.56;10432097;27;97817;-77
2022/03/05 07:03:22;;;;;;;15.33;7.73;;;3.20;93.30;;;1.75;64.70;100511.50;10436619;27;96709;-76
2022/03/05 07:08:26;;;;;;;21.37;10.23;;;3.40;93.00;;;2.01;64.40;100522.00;10419005;27;96487;-77
2022/03/05 07:13:29;;;;;;;24.63;12.30;;;3.60;92.80;;;2.17;63.70;100525.25;10418994;27;96650;-76
2022/03/05 07:18:33;;;;;;;23.80;12.23;;;3.80;92.40;;;2.34;63.34;100527.53;10436293;27;98229;-77
2022/03/05 07:23:36;;;;;;;24.47;12.80;;;4.00;92.10;;;2.45;64.58;100525.91;10405021;27;98162;-78
2022/03/05 07:28:39;;;;;;;37.43;15.53;;;4.10;92.60;;;2.55;64.98;100521.72;10454304;27;96670;-77
2022/03/05 07:33:42;;;;;;;64.43;26.63;;;4.20;92.80;;;2.64;65.05;100523.69;10418030;27;98839;-77
2022/03/05 07:38:45;;;;;;;33.50;17.07;;;4.30;93.00;;;2.71;64.08;100531.97;10424984;27;97901;-77
2022/03/05 07:43:48;;;;;;;28.73;14.40;;;4.40;92.60;;;2.83;64.12;100533.72;10401066;27;96603;-77
2022/03/05 07:48:52;;;;;;;21.33;11.17;;;4.50;92.50;;;2.98;63.26;100544.88;10438130;27;98096;-77
2022/03/05 07:53:54;;;;;;;25.20;12.60;;;4.60;91.90;;;3.06;62.18;100538.16;10417618;27;97745;-77
2022/03/05 07:58:57;;;;;;;24.53;12.23;;;4.70;91.60;;;3.19;60.46;100540.72;10440058;27;96586;-77
2022/03/05 08:04:02;;;;;;;20.13;10.37;;;4.80;90.70;;;3.34;59.65;100550.06;10435714;27;96907;-77
2022/03/05 08:09:05;;;;;;;17.13;8.73;;;5.00;90.00;;;3.44;59.07;100551.09;10388501;27;97504;-78
2022/03/05 08:14:08;;;;;;;16.10;9.00;;;5.10;88.50;;;3.58;58.96;100551.84;10408712;27;96750;-77
2022/03/05 08:19:11;;;;;;;18.17;9.07;;;5.20;87.70;;;3.62;57.13;100556.75;10427005;27;96784;-77
2022/03/05 08:24:13;;;;;;;22.40;8.93;;;5.20;84.10;;;3.68;57.18;100555.47;10432418;27;96588;-77
2022/03/05 08:29:16;;;;;;;18.63;8.93;;;5.30;84.00;;;3.72;55.87;100559.56;10428746;27;98592;-77
2022/03/05 08:34:19;;;;;;;16.63;8.27;;;5.30;82.10;;;3.79;55.94;100567.81;10429348;27;96686;-78
2022/03/05 08:39:23;;;;;;;13.37;6.30;;;5.40;83.30;;;3.85;55.68;100562.94;10449658;27;96518;-77
2022/03/05 08:44:27;;;;;;;20.90;9.30;;;5.50;80.80;;;3.90;55.50;100560.78;10402247;27;98149;-77
2022/03/05 08:49:30;;;;;;;45.20;21.43;;;5.50;81.50;;;3.95;54.95;100563.88;10401159;27;97280;-77
2022/03/05 08:54:33;;;;;;;16.27;9.07;;;5.60;80.20;;;4.03;54.87;100558.06;10453777;27;96641;-77
2022/03/05 08:59:37;;;;;;;15.87;7.97;;;5.60;79.60;;;4.17;54.02;100555.19;10419873;27;97521;-75
2022/03/05 09:04:41;;;;;;;20.00;9.07;;;5.70;78.70;;;4.30;53.07;100553.28;10416495;27;97433;-76
2022/03/05 09:09:44;;;;;;;14.70;8.30;;;5.90;77.70;;;4.54;52.57;100547.91;10403747;27;96613;-77
2022/03/05 09:14:48;;;;;;;17.90;8.00;;;6.10;75.70;;;4.78;51.11;100546.94;10415341;28;96877;-76
2022/03/05 09:19:53;;;;;;;19.33;10.13;;;6.30;73.60;;;5.04;50.25;100545.69;10416523;28;96875;-76
2022/03/05 09:24:57;;;;;;;18.70;10.23;;;6.50;73.40;;;5.46;49.72;100537.00;10445437;27;96593;-77
2022/03/05 09:30:05;;;;;;;13.53;7.50;;;6.80;72.80;;;5.83;48.46;100540.09;10401382;28;96517;-76
2022/03/05 09:35:08;;;;;;;15.57;7.77;;;7.10;70.50;;;6.05;47.69;100537.31;10398169;27;96930;-76
2022/03/05 09:40:12;;;;;;;13.30;7.77;;;7.40;69.70;;;6.40;46.71;100531.66;10422556;27;96546;-76
2022/03/05 09:45:15;;;;;;;12.00;6.60;;;7.70;69.80;;;6.69;45.62;100523.84;10449968;27;97601;-76
2022/03/05 09:50:19;;;;;;;13.13;7.63;;;8.00;65.60;;;7.20;45.16;100527.28;10428271;27;96592;-77
2022/03/05 09:55:22;;;;;;;11.13;6.20;;;8.40;65.60;;;7.58;44.54;100520.31;10387866;28;96468;-77
2022/03/05 10:00:25;;;;;;;16.50;8.13;;;8.70;64.30;;;7.91;41.78;100521.63;10398789;28;96453;-77
2022/03/05 10:05:28;;;;;;;11.87;6.57;;;9.10;63.50;;;8.29;42.86;100521.53;10417414;28;96470;-77
2022/03/05 10:11:05;;;;;;;11.83;6.40;;;9.40;61.20;;;8.24;40.60;100507.06;10402112;28;96656;-77
2022/03/05 10:16:33;;;;;;;15.13;8.23;;;9.50;59.00;;;8.44;40.48;100513.97;10412565;28;96653;-76
2022/03/05 10:21:36;;;;;;;11.17;6.33;;;9.70;57.90;;;8.71;39.95;100505.19;10404877;27;96492;-77
2022/03/05 10:26:54;;;;;;;11.40;5.97;;;9.90;56.80;;;9.18;38.06;100510.34;10432548;27;96547;-76
2022/03/05 10:32:02;;;;;;;8.20;4.83;;;10.30;56.30;;;9.80;36.24;100513.81;10446427;27;96415;-78
2022/03/05 10:37:06;;;;;;;11.23;6.07;;;10.70;52.20;;;10.19;35.35;100503.63;10446181;27;97532;-78
2022/03/05 10:42:27;;;;;;;9.03;6.27;;;11.10;53.90;;;10.58;35.59;100497.84;10428252;27;96594;-78
2022/03/05 10:47:41;;;;;;;9.52;5.93;;;11.50;52.40;;;10.88;34.75;100492.97;10405791;28;96604;-77
2022/03/05 10:52:46;;;;;;;10.50;6.65;;;11.80;49.10;;;10.46;34.67;100488.50;10406278;27;96662;-77
2022/03/05 10:58:17;;;;;;;12.77;6.93;;;11.60;50.50;;;10.33;35.10;100496.91;10403846;27;96673;-77
2022/03/05 11:03:21;;;;;;;11.75;6.88;;;11.60;49.80;;;9.92;35.57;100485.22;10404531;28;96494;-77
2022/03/05 11:08:26;;;;;;;12.23;6.87;;;11.40;49.80;;;9.54;35.99;100495.22;10429472;27;96701;-77
2022/03/05 11:13:29;;;;;;;13.67;7.33;;;11.00;49.30;;;9.22;36.94;100490.47;10434959;27;96587;-77
2022/03/05 11:18:32;;;;;;;10.83;6.40;;;10.70;50.20;;;8.70;37.37;100492.94;10444674;27;96611;-77
2022/03/05 11:23:37;;;;;;;11.67;6.00;;;10.30;50.20;;;8.14;37.69;100479.78;10444384;27;96459;-77
2022/03/05 11:28:48;;;;;;;10.13;5.63;;;9.70;50.40;;;7.65;38.43;100485.22;10444531;27;96896;-77
2022/03/05 11:33:51;;;;;;;14.60;7.68;;;9.40;50.80;;;7.28;39.29;100481.66;10462777;27;96414;-77
2022/03/05 11:39:27;;;;;;;11.10;6.03;;;9.00;51.20;;;7.07;40.04;100468.56;10446013;27;96470;-77
2022/03/05 11:44:36;;;;;;;12.00;6.90;;;8.70;51.70;;;6.96;39.88;100472.19;10421542;27;96591;-77
2022/03/05 11:50:00;;;;;;;11.90;6.10;;;8.60;52.10;;;7.07;39.66;100468.56;10404341;28;96669;-77
2022/03/05 11:55:24;;;;;;;11.00;6.13;;;8.60;52.20;;;7.37;39.28;100464.94;10419820;28;96598;-79
2022/03/05 12:00:31;;;;;;;10.03;5.40;;;8.80;50.90;;;7.49;38.84;100461.16;10402088;27;96527;-76
2022/03/05 12:05:38;;;;;;;9.10;5.27;;;8.90;51.90;;;7.65;38.98;100460.56;10428407;27;96775;-77
2022/03/05 12:11:14;;;;;;;9.93;4.77;;;9.00;51.70;;;7.75;38.02;100449.00;10444077;27;96659;-77
2022/03/05 12:16:25;;;;;;;9.37;4.60;;;9.20;50.90;;;7.91;37.87;100444.91;10417691;28;96580;-76
2022/03/05 12:21:31;;;;;;;7.50;3.93;;;9.30;50.60;;;7.78;37.07;100440.75;10401347;28;96458;-77
2022/03/05 12:26:47;;;;;;;11.50;4.80;;;9.30;49.90;;;7.52;37.26;100447.66;10402378;28;96547;-76
2022/03/05 12:31:50;;;;;;;7.67;4.20;;;9.10;49.90;;;7.53;37.56;100443.19;10409525;27;97374;-76
2022/03/05 12:36:53;;;;;;;8.97;4.70;;;9.00;49.90;;;7.49;37.43;100435.53;10442998;27;96547;-76
2022/03/05 12:41:56;;;;;;;8.10;4.03;;;9.00;50.10;;;7.37;37.69;100436.66;10453247;27;96591;-77
2022/03/05 12:46:58;;;;;;;9.37;4.70;;;9.00;50.10;;;7.39;38.32;100439.19;10398715;27;96547;-77
2022/03/05 12:52:02;;;;;;;9.87;4.37;;;8.90;50.30;;;7.24;38.08;100439.63;10431713;27;96662;-76
2022/03/05 12:57:08;;;;;;;11.40;5.53;;;8.90;50.10;;;6.88;38.16;100437.69;10440581;27;96578;-76
2022/03/05 13:02:11;;;;;;;15.23;6.37;;;8.60;50.30;;;6.59;39.31;100445.56;10441714;27;96551;-78
2022/03/05 13:07:33;;;;;;;13.00;6.80;;;8.30;50.80;;;6.20;40.31;100447.28;10441252;27;96483;-77
2022/03/05 13:12:38;;;;;;;11.77;6.90;;;7.90;51.60;;;6.01;40.51;100448.03;10457700;27;96484;-76
2022/03/05 13:17:48;;;;;;;11.57;5.47;;;7.70;51.70;;;5.85;41.32;100451.13;10415612;27;96565;-77
2022/03/05 13:22:50;;;;;;;12.77;5.57;;;7.50;52.30;;;5.77;41.66;100451.78;10428666;27;96744;-77
2022/03/05 13:27:54;;;;;;;9.40;4.80;;;7.40;52.70;;;5.84;41.48;100446.81;10420073;27;96586;-77
2022/03/05 13:32:57;;;;;;;12.47;5.47;;;7.40;52.70;;;5.95;41.95;100445.94;10439939;27;96634;-78
2022/03/05 13:38:00;;;;;;;10.77;6.30;;;7.50;53.30;;;5.96;41.30;100439.69;10458444;27;97053;-76
2022/03/05 13:43:03;;;;;;;9.07;4.83;;;7.50;53.00;;;5.88;41.87;100437.69;10439275;27;96494;-76
2022/03/05 13:48:07;;;;;;;9.10;4.70;;;7.50;53.10;;;5.80;41.84;100438.31;10439822;27;96443;-76
2022/03/05 13:53:09;;;;;;;14.00;5.90;;;7.40;53.00;;;5.69;41.80;100437.56;10433688;27;96580;-76
2022/03/05 13:58:21;;;;;;;10.83;5.60;;;7.30;53.00;;;5.60;42.41;100433.91;10441520;27;96410;-76
2022/03/05 14:03:24;;;;;;;;;;;7.20;53.60;;;5.58;43.00;100434.06;10455241;27;96419;-76
2022/03/05 14:08:28;;;;;;;9.30;4.70;;;7.20;54.30;;;5.49;42.80;100431.34;10430661;27;96558;-77
2022/03/05 14:13:31;;;;;;;7.83;4.63;;;7.20;53.70;;;5.46;43.56;100432.44;10430081;27;96698;-77
2022/03/05 14:18:44;;;;;;;8.97;4.80;;;7.10;54.30;;;5.40;43.15;100427.69;10395666;28;96584;-76
2022/03/05 14:23:50;;;;;;;14.47;6.53;;;7.10;54.30;;;5.36;43.81;100436.81;10430495;27;96562;-76
2022/03/05 14:28:53;;;;;;;11.03;5.37;;;7.00;54.80;;;5.28;44.48;100434.00;10454410;27;96474;-75
2022/03/05 14:33:56;;;;;;;11.37;5.50;;;6.90;55.40;;;5.21;44.60;100428.38;10426025;28;96526;-76
2022/03/05 14:38:59;;;;;;;11.90;5.13;;;6.80;55.70;;;5.12;44.85;100428.31;10410850;27;96612;-76
2022/03/05 14:44:02;;;;;;;8.87;4.53;;;6.80;56.00;;;5.04;44.82;100427.16;10427005;27;96658;-75
2022/03/05 14:49:05;;;;;;;8.17;4.97;;;6.70;55.90;;;4.97;44.88;100431.25;10436871;27;96482;-76
2022/03/05 14:54:08;;;;;;;8.77;5.03;;;6.60;56.10;;;4.93;44.77;100431.66;10443767;27;98655;-76
2022/03/05 14:59:11;;;;;;;15.43;7.27;;;6.50;56.00;;;4.92;45.50;100425.53;10449298;27;96471;-76
2022/03/05 15:04:15;;;;;;;11.10;6.33;;;6.50;56.30;;;4.87;45.23;100419.81;10448244;27;96467;-76
2022/03/05 15:09:18;;;;;;;12.63;6.00;;;6.50;56.20;;;4.86;45.10;100418.16;10448929;27;96522;-76
2022/03/05 15:14:21;;;;;;;22.17;10.97;;;6.50;56.10;;;4.84;45.38;100425.31;10444930;27;96506;-76
2022/03/05 15:19:24;;;;;;;14.47;7.43;;;6.50;56.60;;;4.82;45.73;100425.44;10429082;27;96511;-76
2022/03/05 15:24:27;;;;;;;16.20;7.30;;;6.50;56.60;;;4.81;45.62;100423.78;10447200;27;96634;-76
2022/03/05 15:29:29;;;;;;;15.13;6.70;;;6.50;56.50;;;4.83;45.47;100428.91;10462634;27;96443;-76
2022/03/05 15:34:34;;;;;;;11.60;5.93;;;6.50;56.70;;;4.83;46.05;100427.13;10445176;27;96583;-77
2022/03/05 15:39:37;;;;;;;12.23;5.37;;;6.50;56.90;;;4.80;45.62;100429.19;10423259;27;98463;-77
2022/03/05 15:44:40;;;;;;;10.93;5.20;;;6.50;56.60;;;4.78;44.38;100426.66;10444786;27;97191;-77
2022/03/05 15:49:43;;;;;;;20.00;10.40;;;6.40;56.10;;;4.79;44.76;100432.75;10435582;27;96600;-77
2022/03/05 15:54:46;;;;;;;33.70;14.83;;;6.50;56.10;;;4.73;44.22;100434.09;10427526;27;96517;-76
2022/03/05 15:59:49;;;;;;;29.37;12.93;;;6.50;55.70;;;4.67;43.79;100429.31;10443898;27;96536;-76
2022/03/05 16:04:52;;;;;;;29.10;12.80;;;6.40;55.20;;;4.62;43.67;100438.53;10462419;27;96473;-76
2022/03/05 16:09:56;;;;;;;10.87;5.60;;;6.40;55.30;;;4.57;43.61;100445.03;10450581;27;96472;-77
2022/03/05 16:14:59;;;;;;;10.37;4.53;;;6.30;55.10;;;4.51;43.46;100444.69;10427788;27;96545;-76
2022/03/05 16:20:03;;;;;;;6.93;3.83;;;6.30;55.00;;;4.44;43.35;100451.41;10442285;27;96468;-76
2022/03/05 16:25:08;;;;;;;12.57;5.97;;;6.20;54.90;;;4.36;43.57;100448.53;10446229;27;96511;-76
2022/03/05 16:30:11;;;;;;;12.13;5.00;;;6.20;55.00;;;4.28;43.52;100454.41;10405402;28;96449;-76
2022/03/05 16:35:14;;;;;;;11.53;5.23;;;6.10;54.80;;;4.23;43.83;100459.19;10400309;28;96446;-77
2022/03/05 16:40:21;;;;;;;7.57;3.60;;;6.10;55.00;;;4.15;44.13;100456.34;10392138;28;96488;-76
2022/03/05 16:45:25;;;;;;;9.33;4.70;;;6.00;55.00;;;4.07;44.15;100469.22;10400421;28;96534;-76
2022/03/05 16:50:28;;;;;;;13.57;4.83;;;5.90;55.00;;;3.98;43.75;100473.44;10417452;28;96454;-76
2022/03/05 16:55:32;;;;;;;16.10;6.37;;;5.80;54.70;;;3.92;44.02;100474.72;10401716;28;96424;-76
2022/03/05 17:00:35;;;;;;;14.73;6.10;;;5.70;54.90;;;3.84;43.29;100482.38;10383260;27;96582;-76
2022/03/05 17:05:38;;;;;;;12.23;5.30;;;5.60;54.70;;;3.82;43.72;100488.69;10384416;27;96469;-76
2022/03/05 17:10:41;;;;;;;10.20;4.90;;;5.60;54.80;;;3.74;44.19;100492.75;10416501;27;96772;-76
2022/03/05 17:15:44;;;;;;;8.00;3.97;;;5.50;55.10;;;3.70;44.33;100501.81;10441100;27;96860;-77
2022/03/05 17:20:48;;;;;;;11.40;5.10;;;5.40;55.10;;;3.65;44.31;100497.88;10459677;27;96374;-77
2022/03/05 17:25:51;;;;;;;10.20;5.83;;;5.40;55.10;;;3.61;44.42;100509.56;10425371;27;96459;-77
2022/03/05 17:30:54;;;;;;;13.53;7.33;;;5.30;55.30;;;3.55;44.76;100505.63;10459517;27;96844;-77
2022/03/05 17:35:58;;;;;;;16.50;8.10;;;5.30;55.50;;;3.49;44.93;100501.66;10410557;27;96558;-77
2022/03/05 17:41:00;;;;;;;13.33;6.97;;;5.20;55.50;;;3.45;45.05;100504.63;10440770;27;96473;-77
2022/03/05 17:46:09;;;;;;;8.73;5.20;;;5.20;55.90;;;3.40;45.40;100512.00;10430399;27;96511;-76
2022/03/05 17:51:12;;;;;;;12.27;6.20;;;5.20;55.90;;;3.33;45.22;100522.13;10400077;27;96928;-77
2022/03/05 17:56:15;;;;;;;9.20;4.83;;;5.10;55.90;;;3.29;45.67;100527.72;10416753;28;97518;-76
2022/03/05 18:01:18;;;;;;;19.87;8.70;;;5.00;56.20;;;3.26;46.08;100531.44;10400593;27;96627;-76
2022/03/05 18:06:24;;;;;;;17.17;7.47;;;5.00;56.40;;;3.23;45.96;100539.50;10440873;27;97299;-76
2022/03/05 18:11:28;;;;;;;16.50;7.30;;;5.10;56.60;;;3.18;47.01;100539.03;10458092;27;96469;-76
2022/03/05 18:16:32;;;;;;;14.73;7.17;;;5.00;56.90;;;3.10;47.51;100533.50;10440443;27;96766;-76
2022/03/05 18:21:37;;;;;;;17.57;8.60;;;5.00;57.00;;;3.03;47.78;100537.50;10419132;27;97733;-76
2022/03/05 18:26:40;;;;;;;19.33;8.67;;;4.90;57.10;;;3.02;47.57;100538.47;10440447;27;96444;-76
2022/03/05 18:31:43;;;;;;;23.90;7.73;;;4.90;57.80;;;2.98;48.36;100542.25;10457088;27;96436;-76
2022/03/05 18:36:46;;;;;;;16.33;6.47;;;4.90;57.70;;;2.96;48.27;100539.75;10394982;27;96574;-76
2022/03/05 18:41:49;;;;;;;53.43;19.03;;;4.90;57.80;;;2.93;48.59;100548.66;10400274;27;96474;-76
2022/03/05 18:46:52;;;;;;;25.87;12.73;;;4.80;58.00;;;2.91;48.32;100550.56;10427495;27;96677;-76
2022/03/05 18:51:55;;;;;;;23.07;10.47;;;4.80;58.00;;;2.91;48.06;100557.63;10446215;27;97486;-76
2022/03/05 18:56:58;;;;;;;17.93;8.93;;;4.80;58.00;;;2.87;48.65;100559.59;10453424;27;96560;-76
2022/03/05 19:02:03;;;;;;;15.33;6.70;;;4.80;58.40;;;2.86;48.38;100557.94;10404950;27;96483;-76
2022/03/05 19:07:06;;;;;;;14.57;6.50;;;4.70;58.30;;;2.85;48.51;100564.13;10423089;28;96588;-76
2022/03/05 19:12:09;;;;;;;16.37;7.37;;;4.70;58.40;;;2.83;48.59;100567.84;10404184;28;96506;-76
2022/03/05 19:17:13;;;;;;;12.47;5.83;;;4.60;58.50;;;2.80;48.47;100568.88;10384905;28;96391;-77
2022/03/05 19:22:16;;;;;;;11.93;5.70;;;4.60;58.60;;;2.79;48.54;100575.06;10382973;28;96525;-76
2022/03/05 19:27:20;;;;;;;8.70;5.00;;;4.60;58.70;;;2.78;48.99;100591.78;10364270;28;96511;-77
2022/03/05 19:32:23;;;;;;;11.37;5.83;;;4.60;58.90;;;2.73;48.86;100588.63;10392767;28;96422;-77
2022/03/05 19:37:26;;;;;;;11.27;5.17;;;4.50;59.10;;;2.74;49.26;100595.56;10407046;28;96585;-77
2022/03/05 19:42:29;;;;;;;14.23;6.07;;;4.50;59.00;;;2.72;49.36;100601.88;10419467;28;96508;-76
2022/03/05 19:47:33;;;;;;;13.33;5.80;;;4.50;59.40;;;2.69;49.43;100600.28;10414023;28;96526;-77
2022/03/05 19:52:36;;;;;;;13.23;6.07;;;4.50;59.30;;;2.65;49.28;100604.94;10384864;28;97680;-76
2022/03/05 19:57:39;;;;;;;15.03;6.60;;;4.50;59.20;;;2.61;49.78;100600.81;10400243;28;96464;-76
2022/03/05 20:02:43;;;;;;;15.47;6.60;;;4.50;59.50;;;2.59;49.54;100607.13;10415060;28;96720;-76
2022/03/05 20:07:47;;;;;;;21.17;8.43;;;4.50;59.50;;;2.56;49.85;100602.94;10387519;28;96576;-76
2022/03/05 20:12:50;;;;;;;9.33;5.20;;;4.40;59.70;;;2.54;50.36;100607.44;10377520;28;96609;-76
2022/03/05 20:17:56;;;;;;;11.53;4.80;;;4.40;60.00;;;2.51;50.32;100604.19;10431519;27;96544;-77
2022/03/05 20:22:59;;;;;;;10.73;5.47;;;4.40;60.10;;;2.46;50.43;100606.28;10409517;27;96768;-76
2022/03/05 20:28:02;;;;;;;14.93;6.53;;;4.40;60.00;;;2.44;50.77;100616.91;10427959;27;96511;-76
2022/03/05 20:33:05;;;;;;;14.90;7.47;;;4.30;60.10;;;2.41;50.64;100620.56;10457227;27;96471;-76
2022/03/05 20:38:08;;;;;;;13.70;6.80;;;4.30;60.30;;;2.38;50.83;100623.41;10441676;27;96509;-76
2022/03/05 20:43:11;;;;;;;14.50;7.10;;;4.30;60.50;;;2.35;51.63;100631.50;10426577;27;96660;-76
2022/03/05 20:48:13;;;;;;;12.00;5.67;;;4.30;60.90;;;2.33;51.62;100633.34;10411500;27;96713;-75
2022/03/05 20:53:17;;;;;;;13.87;6.27;;;4.30;61.00;;;2.27;52.20;100628.53;10438929;27;96836;-75
2022/03/05 20:58:19;;;;;;;12.07;5.73;;;4.20;61.20;;;2.22;52.44;100637.66;10429272;27;96524;-76
2022/03/05 21:03:22;;;;;;;15.13;6.90;;;4.20;62.00;;;2.16;52.51;100638.94;10406446;27;96630;-76